createdAt,value
2022-10-09T00:01:43.783Z,60.00
2022-10-09T00:11:51.845Z,66.00
2022-10-09T00:21:58.119Z,66.00
2022-10-09T00:32:03.928Z,66.00
2022-10-09T00:42:09.642Z,64.00
2022-10-09T00:52:16.000Z,58.00
2022-10-09T01:02:23.475Z,62.00
2022-10-09T01:12:30.438Z,62.00
2022-10-09T01:22:37.631Z,60.00
2022-10-09T01:32:44.366Z,58.00
2022-10-09T01:42:52.167Z,60.00
2022-10-09T01:52:59.200Z,60.00
2022-10-09T02:03:06.212Z,58.00
2022-10-09T02:13:13.123Z,58.00
2022-10-09T02:23:20.199Z,58.00
2022-10-09T02:33:26.719Z,58.00
2022-10-09T02:43:33.826Z,62.00
2022-10-09T02:53:40.746Z,58.00
2022-10-09T03:03:47.850Z,58.00
2022-10-09T03:13:55.006Z,58.00
2022-10-09T03:24:02.193Z,56.00
2022-10-09T03:34:08.370Z,64.00
2022-10-09T03:44:14.195Z,64.00
2022-10-09T03:54:20.294Z,64.00
2022-10-09T04:04:27.001Z,60.00
2022-10-09T04:14:33.818Z,62.00
2022-10-09T04:24:40.564Z,62.00
2022-10-09T04:34:46.544Z,66.00
2022-10-09T04:44:54.608Z,64.00
2022-10-09T04:55:00.703Z,64.00
2022-10-09T05:05:06.443Z,68.00
2022-10-09T05:15:12.535Z,66.00
2022-10-09T05:25:18.654Z,64.00
2022-10-09T05:35:25.175Z,62.00
2022-10-09T05:45:31.974Z,62.00
2022-10-09T05:55:39.902Z,60.00
2022-10-09T06:05:45.660Z,68.00
2022-10-09T06:15:51.885Z,62.00
2022-10-09T06:25:59.126Z,62.00
2022-10-09T06:36:09.984Z,66.00
2022-10-09T06:46:17.797Z,66.00
2022-10-09T06:56:25.054Z,68.00
2022-10-09T07:06:30.957Z,70.00
2022-10-09T07:16:38.601Z,76.00
2022-10-09T07:26:44.023Z,78.00
2022-10-09T07:36:51.395Z,54.00
2022-10-09T07:46:58.441Z,58.00
2022-10-09T07:57:05.703Z,56.00
2022-10-09T08:07:13.073Z,58.00
2022-10-09T08:17:19.869Z,56.00
2022-10-09T08:27:27.354Z,56.00
2022-10-09T08:37:34.392Z,54.00
2022-10-09T08:47:41.876Z,56.00
2022-10-09T08:57:49.097Z,62.00
2022-10-09T09:07:56.338Z,54.00
2022-10-09T09:18:03.628Z,56.00
2022-10-09T09:28:12.513Z,56.00
2022-10-09T09:38:20.102Z,56.00
2022-10-09T09:48:27.356Z,54.00
2022-10-09T09:58:34.619Z,56.00
2022-10-09T10:08:42.379Z,54.00
2022-10-09T10:18:49.635Z,56.00
2022-10-09T10:28:56.741Z,58.00
2022-10-09T10:39:03.749Z,58.00
2022-10-09T10:49:11.015Z,58.00
2022-10-09T10:59:22.223Z,58.00
2022-10-09T11:09:29.245Z,56.00
2022-10-09T11:19:37.921Z,56.00
2022-10-09T11:29:48.353Z,56.00
2022-10-09T11:39:55.656Z,60.00
2022-10-09T11:50:02.636Z,54.00
2022-10-09T12:00:09.410Z,52.00
2022-10-09T12:10:16.047Z,54.00
2022-10-09T12:20:22.825Z,50.00
2022-10-09T12:30:29.761Z,60.00
2022-10-09T12:40:36.557Z,58.00
2022-10-09T12:50:43.513Z,54.00
2022-10-09T13:00:50.042Z,54.00
2022-10-09T13:10:57.491Z,60.00
2022-10-09T13:21:04.544Z,60.00
2022-10-09T13:31:12.108Z,58.00
2022-10-09T13:41:19.372Z,62.00
2022-10-09T13:51:26.545Z,62.00
2022-10-09T14:01:34.888Z,60.00
2022-10-09T14:11:41.144Z,56.00
2022-10-09T14:21:48.003Z,56.00
2022-10-09T14:31:55.388Z,58.00
2022-10-09T14:42:02.329Z,60.00
2022-10-09T14:52:09.052Z,66.00
2022-10-09T15:02:14.911Z,58.00
2022-10-09T15:12:20.511Z,56.00
2022-10-09T15:22:26.373Z,60.00
2022-10-09T15:32:32.117Z,60.00
2022-10-09T15:42:38.078Z,60.00
2022-10-09T15:52:43.978Z,56.00
2022-10-09T16:02:51.024Z,72.00
2022-10-09T16:12:58.386Z,68.00
2022-10-09T16:23:05.034Z,62.00
2022-10-09T16:33:13.019Z,70.00
2022-10-09T16:43:20.364Z,64.00
2022-10-09T16:53:27.375Z,58.00
2022-10-09T17:03:34.636Z,56.00
2022-10-09T17:13:41.324Z,66.00
2022-10-09T17:23:48.543Z,66.00
2022-10-09T17:33:55.309Z,66.00
2022-10-09T17:44:02.139Z,56.00
2022-10-09T17:54:11.917Z,56.00
2022-10-09T18:04:18.469Z,62.00
2022-10-09T18:14:25.371Z,56.00
2022-10-09T18:24:32.444Z,60.00
2022-10-09T18:34:43.131Z,56.00
2022-10-09T18:44:51.293Z,54.00
2022-10-09T18:54:57.291Z,56.00
2022-10-09T19:05:03.162Z,58.00
2022-10-09T19:15:12.068Z,60.00
2022-10-09T19:25:18.559Z,58.00
2022-10-09T19:35:25.088Z,58.00
2022-10-09T19:45:32.114Z,64.00
2022-10-09T19:55:38.980Z,62.00
2022-10-09T20:05:46.024Z,62.00
2022-10-09T20:15:52.936Z,56.00
2022-10-09T20:25:59.711Z,70.00
2022-10-09T20:36:06.660Z,52.00
2022-10-09T20:46:13.713Z,52.00
2022-10-09T20:56:20.835Z,54.00
2022-10-09T21:06:27.972Z,52.00
2022-10-09T21:16:35.559Z,52.00
2022-10-09T21:26:42.025Z,54.00
2022-10-09T21:37:16.505Z,54.00
2022-10-09T21:47:01.121Z,50.00
2022-10-09T21:57:08.384Z,54.00
2022-10-09T22:07:15.424Z,54.00
2022-10-09T22:17:22.580Z,52.00
2022-10-09T22:27:29.649Z,52.00
2022-10-09T22:37:36.320Z,52.00
2022-10-09T22:47:43.332Z,50.00
2022-10-09T22:57:50.318Z,52.00
2022-10-09T23:07:57.911Z,48.00
2022-10-09T23:18:04.959Z,50.00
2022-10-09T23:28:12.270Z,50.00
2022-10-09T23:38:19.108Z,50.00
2022-10-09T23:48:26.301Z,52.00
2022-10-09T23:58:33.204Z,50.00
